Time;durP1;ratioP1;P1;durP2;ratioP2;P2;SDS_P1;SDS_P2;PMS_P1;PMS_P2;Temp;Humidity;BMP_temperature;BMP_pressure;BME280_temperature;BME280_humidity;BME280_pressure;Samples;Min_cycle;Max_cycle;Signal;HPM_P1;HPM_P2
2022/01/24 00:05:35;;;;;;;1999.90;999.90;;;;;;;9.78;77.38;102983.84;15465416;28;20555;-64
2022/01/24 00:14:07;;;;;;;1999.90;999.90;;;;;;;9.75;77.75;102984.41;15478398;28;20053;-63
2022/01/24 00:29:25;;;;;;;1999.90;999.90;;;;;;;9.80;77.33;102990.03;15442272;28;20051;-65
2022/01/24 00:37:04;;;;;;;1999.90;999.90;;;;;;;9.79;77.41;102982.72;15460643;28;20149;-63
2022/01/24 01:00:43;;;;;;;1999.90;999.90;;;;;;;9.75;77.91;102984.41;15429882;28;20042;-64
2022/01/24 01:24:16;;;;;;;1999.90;999.90;;;;;;;9.78;77.21;102977.44;15441401;28;20530;-66
2022/01/24 01:32:00;;;;;;;1999.90;999.90;;;;;;;9.74;77.62;102973.53;15451370;28;20047;-64
2022/01/24 01:40:21;;;;;;;1999.90;999.90;;;;;;;9.68;77.70;102972.66;15491542;23;20109;-61
2022/01/24 01:55:56;;;;;;;1999.90;999.90;;;;;;;9.60;78.16;102970.41;15569199;28;20144;-60
2022/01/24 02:03:33;;;;;;;1999.90;999.90;;;;;;;9.72;78.51;102975.75;15585100;28;20045;-60
2022/01/24 02:11:20;;;;;;;1999.90;999.90;;;;;;;9.65;78.43;102976.00;15594241;28;20045;-61
2022/01/24 02:19:14;;;;;;;1999.90;999.90;;;;;;;9.66;78.04;102969.31;15603189;28;20096;-61
2022/01/24 02:26:54;;;;;;;1999.90;999.90;;;;;;;9.67;78.33;102972.94;15548101;28;20502;-62
2022/01/24 02:34:37;;;;;;;1999.90;999.90;;;;;;;9.67;78.19;102956.22;15571849;28;20365;-62
2022/01/24 02:50:09;;;;;;;1999.90;999.90;;;;;;;9.10;79.82;102966.22;15606036;28;20410;-61
2022/01/24 02:57:43;;;;;;;1999.90;999.90;;;;;;;9.35;77.92;102964.69;15566999;28;20072;-62
2022/01/24 03:05:16;;;;;;;1999.90;999.90;;;;;;;9.36;78.28;102961.63;15545861;28;20115;-61
2022/01/24 03:12:58;;;;;;;1999.90;999.90;;;;;;;9.35;78.60;102956.34;15561143;28;20060;-61
2022/01/24 03:20:31;;;;;;;1999.90;999.90;;;;;;;9.39;77.92;102954.72;15543447;28;20053;-61
2022/01/24 03:28:07;;;;;;;1999.90;999.90;;;;;;;9.20;77.65;102959.88;15566024;28;20041;-61
2022/01/24 03:35:42;;;;;;;1999.90;999.90;;;;;;;9.20;77.64;102949.59;15587142;28;20073;-61
2022/01/24 03:43:17;;;;;;;1999.90;999.90;;;;;;;9.28;76.83;102951.03;15547053;28;20064;-61
2022/01/24 03:50:50;;;;;;;1999.90;999.90;;;;;;;9.02;77.77;102954.75;15579540;28;20123;-62
2022/01/24 03:58:24;;;;;;;1999.90;999.90;;;;;;;8.84;78.49;102981.06;15578613;28;20053;-62
2022/01/24 04:05:57;;;;;;;1999.90;999.90;;;;;;;9.11;77.96;102969.84;15547280;28;20309;-61
2022/01/24 04:13:34;;;;;;;1999.90;999.90;;;;;;;9.32;77.25;102957.72;15552943;28;20038;-61
2022/01/24 04:21:22;;;;;;;1999.90;999.90;;;;;;;9.16;77.45;102970.72;15558073;28;20045;-62
2022/01/24 04:28:58;;;;;;;1999.90;999.90;;;;;;;9.25;77.24;102960.75;15577204;28;20084;-61
2022/01/24 04:36:31;;;;;;;1999.90;999.90;;;;;;;9.31;76.96;102949.63;15606179;28;20154;-61
2022/01/24 04:44:13;;;;;;;1999.90;999.90;;;;;;;9.19;76.69;102970.19;15567235;28;20064;-62
2022/01/24 04:51:56;;;;;;;1999.90;999.90;;;;;;;9.19;77.28;102967.41;15595534;28;20038;-61
2022/01/24 04:59:30;;;;;;;;;;;;;;;9.37;77.08;102968.03;15582947;28;20041;-62
2022/01/24 05:07:03;;;;;;;;;;;;;;;8.97;78.12;102972.28;15573559;28;19921;-61
2022/01/24 05:30:22;;;;;;;1999.90;999.90;;;;;;;8.91;78.13;102990.88;15566529;28;20053;-60
2022/01/24 05:38:10;;;;;;;1999.90;999.90;;;;;;;9.11;77.74;102992.13;15575488;28;20073;-61
2022/01/24 05:45:50;;;;;;;1999.90;999.90;;;;;;;8.94;77.49;102995.91;15583139;28;20042;-61
2022/01/24 05:53:31;;;;;;;1999.90;999.90;;;;;;;9.11;76.66;102995.75;15562648;28;20052;-60
2022/01/24 06:01:07;;;;;;;1999.90;999.90;;;;;;;9.05;76.55;102998.78;15549476;28;20056;-61
2022/01/24 06:08:43;;;;;;;1999.90;999.90;;;;;;;9.10;77.21;102994.09;15550555;28;20549;-62
2022/01/24 06:16:19;;;;;;;1999.90;999.90;;;;;;;9.06;76.99;102995.72;15549672;28;20129;-61
2022/01/24 06:24:04;;;;;;;1999.90;999.90;;;;;;;8.80;77.47;103005.84;15560546;28;20491;-61
2022/01/24 06:31:41;;;;;;;1999.90;999.90;;;;;;;8.83;77.40;102999.72;15609645;28;20038;-61
2022/01/24 06:39:18;;;;;;;1999.90;999.90;;;;;;;8.81;77.48;103004.72;15592142;28;20073;-62
2022/01/24 06:47:00;;;;;;;1999.90;999.90;;;;;;;8.77;77.67;103008.31;15608725;28;20288;-60
2022/01/24 06:54:33;;;;;;;1999.90;999.90;;;;;;;8.86;77.37;103026.22;15604366;28;20041;-62
2022/01/24 07:02:09;;;;;;;1999.90;999.90;;;;;;;8.77;78.03;103025.03;15606393;28;20103;-62
2022/01/24 07:09:44;;;;;;;1999.90;999.90;;;;;;;8.68;78.29;103035.78;15557354;28;20331;-60
2022/01/24 07:17:45;;;;;;;1999.90;999.90;;;;;;;8.55;78.56;103053.78;15552147;28;20100;-61
2022/01/24 07:25:22;;;;;;;1999.90;999.90;;;;;;;8.49;78.11;103045.63;15590264;28;20045;-62
2022/01/24 07:32:56;;;;;;;1999.90;999.90;;;;;;;8.40;78.07;103045.25;15600916;22;20529;-61
2022/01/24 07:40:37;;;;;;;1999.90;999.90;;;;;;;8.55;77.89;103045.41;15628263;23;20063;-64
2022/01/24 07:48:12;;;;;;;1999.90;999.90;;;;;;;8.80;77.41;103057.88;15677374;28;20068;-65
2022/01/24 07:55:45;;;;;;;1999.90;999.90;;;;;;;8.98;76.49;103042.75;15685989;28;20045;-65
2022/01/24 08:03:22;;;;;;;1999.90;999.90;;;;;;;9.20;76.13;103052.66;15732933;28;20287;-64
2022/01/24 08:10:55;;;;;;;1999.90;999.90;;;;;;;9.53;74.58;103047.88;15708552;28;20036;-63
2022/01/24 08:18:29;;;;;;;1999.90;999.90;;;;;;;9.74;74.46;103059.97;15698285;28;20390;-64
2022/01/24 08:26:02;;;;;;;1999.90;999.90;;;;;;;9.62;74.47;103067.72;15687145;28;20103;-63
2022/01/24 08:33:36;;;;;;;1999.90;999.90;;;;;;;9.50;74.92;103068.75;15638780;28;20044;-63
2022/01/24 08:41:16;;;;;;;1999.90;999.90;;;;;;;9.74;74.01;103068.34;15684612;28;20051;-63
2022/01/24 08:48:50;;;;;;;1999.90;999.90;;;;;;;9.80;73.63;103056.09;15654099;28;20045;-63
2022/01/24 08:56:25;;;;;;;1999.90;999.90;;;;;;;9.88;72.80;103060.31;15647711;28;20409;-63
2022/01/24 09:03:59;;;;;;;1999.90;999.90;;;;;;;10.66;71.80;103061.16;15648680;28;20211;-63
2022/01/24 09:11:34;;;;;;;1999.90;999.90;;;;;;;11.26;68.81;103062.31;15668703;28;20798;-64
2022/01/24 09:19:08;;;;;;;1999.90;999.90;;;;;;;11.26;68.02;103065.94;15644724;28;20542;-64
2022/01/24 09:26:41;;;;;;;1999.90;999.90;;;;;;;10.71;69.29;103061.16;15647476;28;20689;-64
2022/01/24 09:34:15;;;;;;;1999.90;999.90;;;;;;;10.81;70.60;103065.91;15605319;28;20332;-64
2022/01/24 09:41:51;;;;;;;1999.90;999.90;;;;;;;10.69;71.60;103050.25;15668264;28;20076;-64
2022/01/24 09:49:26;;;;;;;1999.90;999.90;;;;;;;10.46;71.97;103056.38;15648862;28;20053;-64
2022/01/24 09:56:58;;;;;;;1999.90;999.90;;;;;;;10.22;73.06;103052.41;15659659;28;20433;-64
2022/01/24 10:04:33;;;;;;;1999.90;999.90;;;;;;;10.10;71.77;103047.00;15633163;28;20067;-62
2022/01/24 10:12:17;;;;;;;1999.90;999.90;;;;;;;10.60;70.85;103049.13;15610906;28;20057;-63
2022/01/24 10:19:52;;;;;;;1999.90;999.90;;;;;;;10.64;69.40;103067.03;15639009;28;20055;-64
2022/01/24 10:27:27;;;;;;;1999.90;999.90;;;;;;;10.96;67.83;103052.81;15675153;28;20160;-63
2022/01/24 10:35:24;;;;;;;1999.90;999.90;;;;;;;10.56;69.00;103048.03;15632563;28;20037;-64
2022/01/24 10:43:15;;;;;;;1999.90;999.90;;;;;;;10.70;69.38;103028.75;15679568;28;20510;-63
2022/01/24 10:51:04;;;;;;;1999.90;999.90;;;;;;;10.43;69.21;103020.66;15641130;28;20060;-64
2022/01/24 10:58:40;;;;;;;1999.90;999.90;;;;;;;10.76;68.50;103019.28;15622022;28;20040;-63
2022/01/24 11:06:36;;;;;;;1999.90;999.90;;;;;;;10.95;67.40;103009.22;15640771;28;20096;-62
2022/01/24 11:14:13;;;;;;;1999.90;999.90;;;;;;;10.55;68.83;103018.44;15660834;28;20551;-64
2022/01/24 11:21:48;;;;;;;1999.90;999.90;;;;;;;10.38;69.57;102998.28;15643715;28;20099;-64
2022/01/24 11:29:24;;;;;;;1999.90;999.90;;;;;;;9.89;71.55;102997.84;15645084;28;20123;-63
2022/01/24 11:36:59;;;;;;;1999.90;999.90;;;;;;;10.17;70.77;102988.16;15663179;28;20041;-64
2022/01/24 11:44:53;;;;;;;1999.90;999.90;;;;;;;10.09;71.19;102986.75;15643672;28;20049;-62
2022/01/24 11:52:32;;;;;;;1999.90;999.90;;;;;;;9.81;71.04;102974.13;15669057;28;20049;-63
2022/01/24 12:00:17;;;;;;;1999.90;999.90;;;;;;;9.54;71.75;102972.31;15646732;28;20069;-64
2022/01/24 12:07:57;;;;;;;1999.90;999.90;;;;;;;9.60;72.09;102973.19;15656364;28;20050;-64
2022/01/24 12:15:58;;;;;;;1999.90;999.90;;;;;;;9.80;71.22;102976.06;15639372;28;20037;-64
2022/01/24 12:23:36;;;;;;;1999.90;999.90;;;;;;;9.62;72.00;102982.13;15626365;28;20137;-64
2022/01/24 12:31:22;;;;;;;1999.90;999.90;;;;;;;9.83;71.09;102960.75;15620039;28;20045;-64
2022/01/24 12:38:57;;;;;;;1999.90;999.90;;;;;;;9.53;70.92;102962.28;15641793;28;20045;-65
2022/01/24 12:46:32;;;;;;;1999.90;999.90;;;;;;;9.27;71.73;102957.69;15658841;28;20293;-64
2022/01/24 12:54:08;;;;;;;1999.90;999.90;;;;;;;9.44;71.49;102952.75;15662349;28;20076;-65
2022/01/24 13:01:44;;;;;;;1999.90;999.90;;;;;;;9.50;72.23;102950.84;15645811;28;20391;-64
2022/01/24 13:09:25;;;;;;;1999.90;999.90;;;;;;;9.48;72.74;102942.78;15667466;28;20045;-64
2022/01/24 13:25:10;;;;;;;1999.90;999.90;;;;;;;8.83;73.94;102941.25;15648018;28;20033;-64
2022/01/24 13:32:49;;;;;;;1999.90;999.90;;;;;;;9.04;73.63;102955.31;15671834;28;20037;-65
2022/01/24 13:40:38;;;;;;;1999.90;999.90;;;;;;;9.12;73.57;102957.59;15654012;28;20053;-64
2022/01/24 13:48:18;;;;;;;1999.90;999.90;;;;;;;9.10;73.12;102955.09;15612614;28;20045;-65
2022/01/24 13:55:52;;;;;;;1999.90;999.90;;;;;;;9.08;73.91;102953.69;15638666;28;20390;-65
2022/01/24 14:03:24;;;;;;;1999.90;999.90;;;;;;;8.74;74.77;102961.50;15670884;28;20049;-65
2022/01/24 14:11:12;;;;;;;1999.90;999.90;;;;;;;9.11;74.07;102965.13;15601830;28;20068;-65
2022/01/24 14:18:45;;;;;;;1999.90;999.90;;;;;;;9.09;74.40;102950.63;15648218;28;20040;-64
2022/01/24 14:26:21;;;;;;;1999.90;999.90;;;;;;;9.07;74.39;102946.44;15667292;28;20045;-63
2022/01/24 14:34:00;;;;;;;1999.90;999.90;;;;;;;9.10;74.08;102938.38;15655922;28;20040;-65
2022/01/24 14:41:39;;;;;;;1999.90;999.90;;;;;;;8.86;75.11;102943.53;15652595;28;20059;-65
2022/01/24 14:49:16;;;;;;;1999.90;999.90;;;;;;;8.71;75.92;102931.41;15651367;28;20436;-64
2022/01/24 14:56:52;;;;;;;1999.90;999.90;;;;;;;8.87;75.51;102939.63;15651068;28;20461;-64
2022/01/24 15:04:26;;;;;;;1999.90;999.90;;;;;;;8.87;75.50;102942.41;15634053;28;20124;-64
2022/01/24 15:12:08;;;;;;;1999.90;999.90;;;;;;;9.09;74.76;102947.00;15627659;28;20498;-65
2022/01/24 15:27:44;;;;;;;1999.90;999.90;;;;;;;8.73;74.45;102943.13;15659857;28;20441;-65
2022/01/24 15:35:18;;;;;;;1999.90;999.90;;;;;;;8.67;74.80;102948.66;15616842;28;20474;-64
2022/01/24 15:43:04;;;;;;;1999.90;999.90;;;;;;;8.53;75.05;102941.00;15600098;28;20104;-64
2022/01/24 15:50:41;;;;;;;1999.90;999.90;;;;;;;8.73;74.47;102934.78;15616064;28;20072;-65
2022/01/24 15:58:15;;;;;;;1999.90;999.90;;;;;;;8.77;74.72;102931.19;15596196;28;20049;-67
2022/01/24 16:05:48;;;;;;;1999.90;999.90;;;;;;;8.81;74.63;102925.94;15645597;28;20056;-64
2022/01/24 16:13:29;;;;;;;1999.90;999.90;;;;;;;8.67;75.27;102937.53;15676102;28;20052;-64
2022/01/24 16:21:15;;;;;;;1999.90;999.90;;;;;;;8.61;74.90;102938.59;15668980;28;20422;-65
2022/01/24 16:28:49;;;;;;;1999.90;999.90;;;;;;;8.73;74.14;102951.47;15653995;28;20438;-65
2022/01/24 16:36:22;;;;;;;1999.90;999.90;;;;;;;8.48;74.55;102949.31;15650316;28;20041;-65
2022/01/24 16:44:04;;;;;;;1999.90;999.90;;;;;;;8.58;75.55;102953.03;15647300;28;20045;-66
2022/01/24 16:51:38;;;;;;;1999.90;999.90;;;;;;;8.81;74.13;102951.81;15647127;28;20147;-64
2022/01/24 16:59:12;;;;;;;1999.90;999.90;;;;;;;8.67;74.28;102958.97;15606087;28;20328;-65
2022/01/24 17:06:46;;;;;;;1999.90;999.90;;;;;;;8.62;73.97;102951.38;15674468;28;20409;-65
2022/01/24 17:14:20;;;;;;;1999.90;999.90;;;;;;;8.64;74.83;102945.56;15667083;28;20425;-65
2022/01/24 17:21:53;;;;;;;1999.90;999.90;;;;;;;8.62;74.38;102945.81;15647739;28;20125;-65
2022/01/24 17:29:28;;;;;;;1999.90;999.90;;;;;;;8.73;74.12;102943.13;15620171;28;20268;-65
2022/01/24 17:37:01;;;;;;;1999.90;999.90;;;;;;;8.70;74.04;102938.94;15601957;28;20046;-66
2022/01/24 17:44:36;;;;;;;1999.90;999.90;;;;;;;8.76;74.43;102945.41;15584829;28;20080;-66
2022/01/24 17:52:14;;;;;;;1999.90;999.90;;;;;;;8.74;74.30;102931.72;15604518;28;20045;-65
2022/01/24 17:59:48;;;;;;;1999.90;999.90;;;;;;;8.70;74.20;102927.78;15662725;28;20064;-66
2022/01/24 18:07:21;;;;;;;1999.90;999.90;;;;;;;8.60;74.56;102931.34;15662044;28;20098;-66
2022/01/24 18:15:01;;;;;;;1999.90;999.90;;;;;;;8.54;74.61;102914.84;15661247;28;20045;-65
2022/01/24 18:22:33;;;;;;;1999.90;999.90;;;;;;;8.59;74.37;102920.47;15662012;28;20458;-65
2022/01/24 18:30:12;;;;;;;1999.90;999.90;;;;;;;8.62;74.64;102918.00;15660705;28;20502;-65
2022/01/24 18:37:47;;;;;;;1999.90;999.90;;;;;;;8.47;74.70;102917.03;15676154;28;20041;-66
2022/01/24 18:45:27;;;;;;;1999.90;999.90;;;;;;;8.58;75.06;102910.44;15677239;28;20045;-65
2022/01/24 18:53:03;;;;;;;1999.90;999.90;;;;;;;8.58;75.32;102913.22;15675994;28;20047;-65
2022/01/24 19:00:38;;;;;;;1999.90;999.90;;;;;;;8.68;75.35;102907.75;15677540;28;20033;-65
2022/01/24 19:08:13;;;;;;;1999.90;999.90;;;;;;;8.48;75.26;102916.78;15677491;28;20045;-65
2022/01/24 19:15:52;;;;;;;1999.90;999.90;;;;;;;8.55;75.40;102894.28;15658835;28;20133;-65
2022/01/24 19:23:57;;;;;;;1999.90;999.90;;;;;;;8.59;75.54;102898.22;15661311;28;20048;-65
2022/01/24 19:31:40;;;;;;;1999.90;999.90;;;;;;;8.55;75.84;102897.09;15657925;28;20497;-66
2022/01/24 19:39:18;;;;;;;1999.90;999.90;;;;;;;8.64;75.28;102903.81;15657951;28;20039;-65
2022/01/24 19:46:53;;;;;;;1999.90;999.90;;;;;;;8.55;75.09;102899.88;15511705;22;20451;-58
2022/01/24 19:54:49;;;;;;;1999.90;999.90;;;;;;;8.64;75.40;102906.59;15490363;28;20335;-57
2022/01/24 20:02:36;;;;;;;1999.90;999.90;;;;;;;8.54;75.24;102906.50;15510996;28;20065;-59
2022/01/24 20:10:14;;;;;;;1999.90;999.90;;;;;;;8.45;75.73;102903.41;15454367;28;20472;-55
2022/01/24 20:17:54;;;;;;;1999.90;999.90;;;;;;;8.11;75.93;102900.81;15400520;28;20047;-55
2022/01/24 20:25:28;;;;;;;1999.90;999.90;;;;;;;8.30;75.58;102897.66;15398819;28;20050;-53
2022/01/24 20:33:03;;;;;;;1999.90;999.90;;;;;;;8.19;75.65;102891.16;15422902;28;20093;-57
2022/01/24 20:40:38;;;;;;;1999.90;999.90;;;;;;;8.15;75.76;102900.31;15435732;28;20043;-56
2022/01/24 20:48:12;;;;;;;1999.90;999.90;;;;;;;7.79;76.78;102909.13;15419987;28;20336;-54
2022/01/24 20:55:46;;;;;;;1999.90;999.90;;;;;;;8.14;75.79;102926.44;15423402;28;20048;-59
2022/01/24 21:03:20;;;;;;;1999.90;999.90;;;;;;;8.15;75.20;102919.78;15436443;28;20157;-58
2022/01/24 21:10:53;;;;;;;1999.90;999.90;;;;;;;8.41;74.70;102913.38;15432716;28;20050;-56
2022/01/24 21:18:27;;;;;;;1999.90;999.90;;;;;;;8.33;75.53;102927.72;15406696;28;20338;-58
2022/01/24 21:26:00;;;;;;;1999.90;999.90;;;;;;;8.49;74.24;102912.03;15433339;28;20047;-59
2022/01/24 21:33:41;;;;;;;1999.90;999.90;;;;;;;8.43;74.08;102925.06;15360474;28;20055;-59
2022/01/24 21:41:14;;;;;;;1999.90;999.90;;;;;;;8.25;75.03;102911.53;15415267;28;20122;-57
2022/01/24 21:48:48;;;;;;;1999.90;999.90;;;;;;;8.25;75.07;102900.41;15400748;28;20046;-57
2022/01/24 21:56:25;;;;;;;1999.90;999.90;;;;;;;8.12;75.67;102904.44;15410473;28;20043;-53
2022/01/24 22:03:59;;;;;;;1999.90;999.90;;;;;;;8.08;75.56;102912.47;15411625;28;20046;-57
2022/01/24 22:11:34;;;;;;;1999.90;999.90;;;;;;;8.16;75.62;102911.19;15459086;28;20078;-58
2022/01/24 22:19:08;;;;;;;1999.90;999.90;;;;;;;8.32;74.84;102910.19;15400784;28;20535;-58
2022/01/24 22:26:58;;;;;;;1999.90;999.90;;;;;;;8.16;74.88;102897.25;15440842;28;20039;-58
2022/01/24 22:34:32;;;;;;;1999.90;999.90;;;;;;;8.05;75.46;102904.69;15410809;28;20149;-57
2022/01/24 22:42:06;;;;;;;1999.90;999.90;;;;;;;8.11;75.13;102888.88;15418832;28;20141;-57
2022/01/24 22:49:41;;;;;;;1999.90;999.90;;;;;;;8.29;74.52;102894.03;15424796;28;20038;-59
2022/01/24 22:57:18;;;;;;;1999.90;999.90;;;;;;;8.29;73.90;102891.25;15407530;28;20078;-58
2022/01/24 23:04:53;;;;;;;1999.90;999.90;;;;;;;8.02;74.54;102891.31;15408520;28;20039;-58
2022/01/24 23:12:26;;;;;;;1999.90;999.90;;;;;;;8.20;74.44;102883.66;15408862;28;20039;-57
2022/01/24 23:20:00;;;;;;;1999.90;999.90;;;;;;;8.43;73.79;102877.75;15408730;28;20114;-58
2022/01/24 23:27:42;;;;;;;1999.90;999.90;;;;;;;8.35;74.13;102881.91;15408577;28;20074;-60
2022/01/24 23:43:11;;;;;;;1999.90;999.90;;;;;;;8.30;73.99;102865.13;15421754;28;20053;-58
2022/01/24 23:50:48;;;;;;;1999.90;999.90;;;;;;;8.14;74.76;102868.03;15380901;28;20047;-60
2022/01/24 23:58:42;;;;;;;1999.90;999.90;;;;;;;8.33;74.45;102866.50;15424872;28;20049;-60
